createdAt,value
2022-12-25T00:01:09.265Z,4.95
2022-12-25T00:03:37.948Z,4.87
2022-12-25T00:06:06.516Z,4.97
2022-12-25T00:08:37.013Z,4.87
2022-12-25T00:11:07.990Z,4.62
2022-12-25T00:13:36.392Z,4.63
2022-12-25T00:16:07.703Z,4.63
2022-12-25T00:18:36.032Z,4.62
2022-12-25T00:21:07.098Z,4.63
2022-12-25T00:23:37.307Z,4.69
2022-12-25T00:26:06.614Z,4.81
2022-12-25T00:28:36.027Z,4.95
2022-12-25T00:31:06.769Z,4.84
2022-12-25T00:33:36.737Z,4.70
2022-12-25T00:36:07.367Z,4.57
2022-12-25T00:38:38.381Z,4.43
2022-12-25T00:41:08.456Z,4.36
2022-12-25T00:43:36.912Z,4.50
2022-12-25T00:46:07.890Z,4.64
2022-12-25T00:48:37.039Z,4.64
2022-12-25T00:51:07.399Z,4.67
2022-12-25T00:53:37.017Z,4.57
2022-12-25T00:56:07.727Z,4.48
2022-12-25T01:01:56.434Z,4.31
2022-12-25T01:04:24.642Z,4.26
2022-12-25T01:06:52.995Z,4.25
2022-12-25T01:09:39.927Z,4.25
2022-12-25T01:12:08.447Z,4.29
2022-12-25T01:14:36.759Z,4.38
2022-12-25T01:17:04.956Z,4.43
2022-12-25T01:19:33.131Z,4.46
2022-12-25T01:22:01.405Z,4.46
2022-12-25T01:24:31.224Z,4.46
2022-12-25T01:26:59.347Z,4.43
2022-12-25T01:29:27.513Z,4.42
2022-12-25T01:31:55.643Z,4.56
2022-12-25T01:34:23.736Z,4.66
2022-12-25T01:36:51.920Z,4.63
2022-12-25T01:39:20.004Z,4.62
2022-12-25T01:41:49.479Z,4.67
2022-12-25T01:44:54.879Z,4.66
2022-12-25T01:47:22.989Z,4.59
2022-12-25T01:49:51.944Z,4.53
2022-12-25T01:52:24.765Z,4.48
2022-12-25T01:54:56.551Z,4.45
2022-12-25T01:57:28.319Z,4.50
2022-12-25T01:59:58.216Z,4.54
2022-12-25T02:02:26.787Z,4.48
2022-12-25T02:04:59.921Z,4.43
2022-12-25T02:07:31.126Z,4.38
2022-12-25T02:09:59.210Z,4.38
2022-12-25T02:12:32.091Z,4.31
2022-12-25T02:15:06.079Z,4.29
2022-12-25T02:17:39.887Z,4.31
2022-12-25T02:20:39.220Z,4.29
2022-12-25T02:23:58.175Z,4.29
2022-12-25T02:27:06.073Z,4.35
2022-12-25T02:29:43.782Z,4.25
2022-12-25T02:32:20.126Z,4.26
2022-12-25T02:34:52.157Z,4.31
2022-12-25T02:37:28.303Z,4.32
2022-12-25T02:40:01.818Z,4.33
2022-12-25T02:42:54.640Z,4.32
2022-12-25T02:45:47.965Z,4.28
2022-12-25T02:48:35.323Z,4.15
2022-12-25T02:51:24.780Z,4.09
2022-12-25T02:54:12.588Z,4.01
2022-12-25T02:57:00.801Z,4.01
2022-12-25T02:59:48.790Z,3.91
2022-12-25T03:02:37.291Z,3.98
2022-12-25T03:05:34.835Z,3.87
2022-12-25T03:08:06.075Z,3.84
2022-12-25T03:10:55.653Z,3.90
2022-12-25T03:13:28.125Z,3.87
2022-12-25T03:16:14.253Z,3.84
2022-12-25T03:18:44.013Z,3.74
2022-12-25T03:21:29.500Z,3.77
2022-12-25T03:24:19.371Z,3.77
2022-12-25T03:26:56.518Z,3.77
2022-12-25T03:29:43.950Z,3.78
2022-12-25T03:32:20.815Z,3.70
2022-12-25T03:35:17.146Z,3.67
2022-12-25T03:38:13.260Z,3.60
2022-12-25T03:41:19.622Z,3.57
2022-12-25T03:44:11.135Z,3.60
2022-12-25T03:47:13.392Z,3.59
2022-12-25T03:50:05.219Z,3.56
2022-12-25T03:52:54.887Z,3.62
2022-12-25T03:55:41.903Z,3.62
2022-12-25T03:58:36.200Z,3.56
2022-12-25T04:01:21.918Z,3.55
2022-12-25T04:04:07.563Z,3.50
2022-12-25T04:06:52.959Z,3.47
2022-12-25T04:09:40.301Z,3.50
2022-12-25T04:12:26.222Z,3.38
2022-12-25T04:15:11.926Z,3.29
2022-12-25T04:17:57.573Z,3.23
2022-12-25T04:20:43.461Z,3.11
2022-12-25T04:23:28.774Z,3.11
2022-12-25T04:26:17.705Z,2.98
2022-12-25T04:29:11.943Z,2.91
2022-12-25T04:32:01.611Z,2.91
2022-12-25T04:34:47.369Z,2.97
2022-12-25T04:37:15.419Z,3.08
2022-12-25T04:39:45.525Z,3.05
2022-12-25T04:42:14.950Z,3.19
2022-12-25T04:44:43.053Z,3.23
2022-12-25T04:47:11.835Z,3.25
2022-12-25T04:49:40.228Z,3.30
2022-12-25T04:52:08.431Z,3.38
2022-12-25T04:54:36.511Z,3.39
2022-12-25T04:57:04.814Z,3.53
2022-12-25T04:59:34.367Z,3.55
2022-12-25T05:02:02.734Z,3.57
2022-12-25T05:04:31.063Z,3.66
2022-12-25T05:06:59.039Z,3.71
2022-12-25T05:09:27.106Z,3.98
2022-12-25T05:11:55.206Z,3.93
2022-12-25T05:14:23.295Z,3.81
2022-12-25T05:16:52.859Z,3.74
2022-12-25T05:19:20.900Z,3.77
2022-12-25T05:21:48.992Z,3.76
2022-12-25T05:24:21.129Z,3.80
2022-12-25T05:26:49.146Z,3.78
2022-12-25T05:29:17.132Z,3.84
2022-12-25T05:31:45.323Z,3.88
2022-12-25T05:34:14.838Z,3.77
2022-12-25T05:36:42.888Z,3.66
2022-12-25T05:39:11.175Z,3.57
2022-12-25T05:41:39.408Z,3.59
2022-12-25T05:44:07.427Z,3.56
2022-12-25T05:46:35.569Z,3.52
2022-12-25T05:49:05.725Z,3.50
2022-12-25T05:51:35.452Z,3.46
2022-12-25T05:54:03.527Z,3.44
2022-12-25T05:56:31.616Z,3.46
2022-12-25T05:58:59.679Z,3.47
2022-12-25T06:01:29.555Z,3.50
2022-12-25T06:03:58.082Z,3.46
2022-12-25T06:06:26.368Z,3.32
2022-12-25T06:08:56.538Z,3.25
2022-12-25T06:11:24.602Z,3.09
2022-12-25T06:13:53.856Z,3.08
2022-12-25T06:16:22.128Z,3.07
2022-12-25T06:18:53.085Z,3.09
2022-12-25T06:21:21.211Z,3.02
2022-12-25T06:23:49.329Z,3.02
2022-12-25T06:26:20.223Z,3.00
2022-12-25T06:28:49.176Z,2.94
2022-12-25T06:31:20.010Z,2.88
2022-12-25T06:33:48.253Z,2.80
2022-12-25T06:36:18.458Z,2.60
2022-12-25T06:38:47.016Z,2.52
2022-12-25T06:41:19.933Z,2.50
2022-12-25T06:43:51.575Z,2.58
2022-12-25T06:46:20.784Z,2.47
2022-12-25T06:48:49.815Z,2.46
2022-12-25T06:51:18.519Z,2.44
2022-12-25T06:53:47.138Z,2.47
2022-12-25T06:56:17.614Z,2.50
2022-12-25T06:58:48.621Z,2.56
2022-12-25T07:01:21.037Z,2.54
2022-12-25T07:03:50.986Z,2.44
2022-12-25T07:06:19.302Z,2.37
2022-12-25T07:08:47.472Z,2.64
2022-12-25T07:11:15.854Z,2.68
2022-12-25T07:13:44.097Z,2.67
2022-12-25T07:16:14.645Z,2.68
2022-12-25T07:18:43.007Z,2.74
2022-12-25T07:21:13.222Z,2.84
2022-12-25T07:23:41.303Z,2.97
2022-12-25T07:26:11.304Z,3.08
2022-12-25T07:28:39.560Z,3.02
2022-12-25T07:31:09.567Z,3.00
2022-12-25T07:33:39.305Z,2.97
2022-12-25T07:36:12.470Z,3.02
2022-12-25T07:38:41.801Z,2.90
2022-12-25T07:41:10.586Z,2.83
2022-12-25T07:43:38.881Z,2.80
2022-12-25T07:46:07.426Z,2.94
2022-12-25T07:48:36.786Z,3.00
2022-12-25T07:51:08.390Z,3.16
2022-12-25T07:53:37.985Z,3.29
2022-12-25T07:56:08.429Z,3.42
2022-12-25T07:58:36.703Z,3.60
2022-12-25T08:01:09.144Z,3.76
2022-12-25T08:03:37.419Z,3.94
2022-12-25T08:06:09.660Z,4.15
2022-12-25T08:08:40.152Z,4.39
2022-12-25T08:11:08.792Z,4.63
2022-12-25T08:13:37.593Z,4.80
2022-12-25T08:16:09.039Z,4.88
2022-12-25T08:18:38.518Z,5.01
2022-12-25T08:21:09.743Z,5.10
2022-12-25T08:23:39.607Z,5.18
2022-12-25T08:26:09.442Z,5.17
2022-12-25T08:28:38.238Z,5.07
2022-12-25T08:31:11.833Z,5.11
2022-12-25T08:33:40.314Z,5.15
2022-12-25T08:36:11.845Z,5.19
2022-12-25T08:38:40.545Z,5.22
2022-12-25T08:41:09.144Z,5.31
2022-12-25T08:43:37.562Z,5.40
2022-12-25T08:46:06.463Z,5.55
2022-12-25T08:48:34.878Z,5.71
2022-12-25T08:51:06.314Z,5.94
2022-12-25T08:53:36.168Z,6.15
2022-12-25T08:56:05.321Z,6.32
2022-12-25T08:58:34.239Z,6.62
2022-12-25T09:01:02.683Z,6.77
2022-12-25T09:03:32.544Z,6.96
2022-12-25T09:06:05.250Z,7.10
2022-12-25T09:08:42.419Z,7.41
2022-12-25T09:11:16.556Z,7.59
2022-12-25T09:13:44.672Z,7.79
2022-12-25T09:16:15.890Z,7.97
2022-12-25T09:18:46.095Z,8.04
2022-12-25T09:21:15.793Z,8.17
2022-12-25T09:23:43.941Z,8.23
2022-12-25T09:26:14.204Z,8.40
2022-12-25T09:28:50.646Z,8.61
2022-12-25T09:31:20.747Z,8.62
2022-12-25T09:33:49.596Z,8.91
2022-12-25T09:36:17.984Z,9.14
2022-12-25T09:38:46.336Z,9.37
2022-12-25T09:41:19.068Z,9.61
2022-12-25T09:43:54.373Z,9.79
2022-12-25T09:46:30.204Z,9.94
2022-12-25T09:49:07.599Z,10.03
2022-12-25T09:51:39.580Z,10.02
2022-12-25T09:54:18.066Z,10.06
2022-12-25T09:56:46.290Z,10.04
2022-12-25T09:59:22.039Z,9.90
2022-12-25T10:02:01.205Z,9.79
2022-12-25T10:04:48.692Z,9.71
2022-12-25T10:07:23.359Z,9.78
2022-12-25T10:10:00.938Z,9.82
2022-12-25T10:12:40.211Z,9.87
2022-12-25T10:15:23.036Z,10.12
2022-12-25T10:18:24.366Z,10.27
2022-12-25T10:20:55.145Z,10.37
2022-12-25T10:23:27.475Z,10.38
2022-12-25T10:25:55.716Z,10.50
2022-12-25T10:28:31.129Z,10.58
2022-12-25T10:31:09.204Z,10.69
2022-12-25T10:33:37.331Z,10.69
2022-12-25T10:36:10.913Z,10.73
2022-12-25T10:38:39.027Z,10.79
2022-12-25T10:41:20.309Z,10.80
2022-12-25T10:43:51.481Z,10.86
2022-12-25T10:46:36.729Z,11.02
2022-12-25T10:49:16.268Z,11.02
2022-12-25T10:51:44.529Z,11.15
2022-12-25T10:54:24.158Z,11.27
2022-12-25T10:56:57.352Z,11.44
2022-12-25T10:59:26.404Z,11.58
2022-12-25T11:01:57.373Z,11.75
2022-12-25T11:04:28.802Z,11.81
2022-12-25T11:07:15.154Z,11.95
2022-12-25T11:09:51.191Z,12.05
2022-12-25T11:12:22.140Z,12.18
2022-12-25T11:14:55.536Z,12.30
2022-12-25T11:17:27.101Z,12.41
2022-12-25T11:19:57.044Z,12.39
2022-12-25T11:22:25.490Z,12.65
2022-12-25T11:24:54.089Z,12.81
2022-12-25T11:27:26.733Z,12.87
2022-12-25T11:29:58.911Z,12.91
2022-12-25T11:32:32.694Z,13.06
2022-12-25T11:35:03.661Z,13.16
2022-12-25T11:37:36.577Z,13.09
2022-12-25T11:40:06.221Z,13.18
2022-12-25T11:42:37.848Z,13.25
2022-12-25T11:45:15.163Z,13.27
2022-12-25T11:47:52.953Z,13.35
2022-12-25T11:50:26.319Z,13.32
2022-12-25T11:52:55.963Z,13.39
2022-12-25T11:55:32.836Z,13.36
2022-12-25T11:58:05.699Z,13.46
2022-12-25T12:00:37.883Z,13.13
2022-12-25T12:03:16.756Z,12.92
2022-12-25T12:05:47.909Z,12.81
2022-12-25T12:08:16.015Z,13.05
2022-12-25T12:11:15.940Z,13.20
2022-12-25T12:14:01.190Z,13.27
2022-12-25T12:16:29.935Z,13.49
2022-12-25T12:18:59.453Z,13.64
2022-12-25T12:21:30.089Z,13.74
2022-12-25T12:24:03.820Z,13.77
2022-12-25T12:26:36.938Z,13.53
2022-12-25T12:29:07.382Z,13.39
2022-12-25T12:31:41.236Z,13.23
2022-12-25T12:34:24.242Z,13.12
2022-12-25T12:36:55.654Z,13.06
2022-12-25T12:39:27.802Z,12.99
2022-12-25T12:41:56.095Z,13.04
2022-12-25T12:44:27.765Z,12.88
2022-12-25T12:46:57.774Z,12.74
2022-12-25T12:49:29.352Z,12.78
2022-12-25T12:52:06.136Z,12.73
2022-12-25T12:54:34.641Z,12.69
2022-12-25T12:57:04.143Z,12.71
2022-12-25T12:59:42.208Z,12.61
2022-12-25T13:02:37.765Z,12.60
2022-12-25T13:05:15.575Z,12.78
2022-12-25T13:07:55.379Z,13.02
2022-12-25T13:10:32.034Z,13.22
2022-12-25T13:13:02.845Z,13.30
2022-12-25T13:15:34.634Z,13.43
2022-12-25T13:18:05.550Z,13.46
2022-12-25T13:20:42.957Z,13.53
2022-12-25T13:23:16.333Z,13.63
2022-12-25T13:25:52.396Z,13.66
2022-12-25T13:28:26.088Z,13.67
2022-12-25T13:30:54.298Z,13.69
2022-12-25T13:33:23.494Z,13.60
2022-12-25T13:35:53.616Z,13.54
2022-12-25T13:38:24.246Z,13.52
2022-12-25T13:41:07.740Z,13.56
2022-12-25T13:43:35.919Z,13.53
2022-12-25T13:46:04.230Z,13.53
2022-12-25T13:48:32.617Z,13.38
2022-12-25T13:51:03.384Z,13.22
2022-12-25T13:53:31.723Z,13.11
2022-12-25T13:56:00.412Z,13.08
2022-12-25T13:58:30.750Z,13.04
2022-12-25T14:01:01.256Z,12.91
2022-12-25T14:03:38.707Z,12.81
2022-12-25T14:06:19.457Z,12.68
2022-12-25T14:08:49.251Z,12.46
2022-12-25T14:11:20.660Z,12.22
2022-12-25T14:13:52.359Z,12.02
2022-12-25T14:16:22.796Z,11.89
2022-12-25T14:18:56.027Z,11.78
2022-12-25T14:21:30.608Z,11.67
2022-12-25T14:23:59.167Z,11.50
2022-12-25T14:26:30.237Z,11.37
2022-12-25T14:29:13.954Z,11.20
2022-12-25T14:31:46.354Z,11.12
2022-12-25T14:34:19.581Z,11.05
2022-12-25T14:36:50.083Z,10.91
2022-12-25T14:39:31.063Z,10.76
2022-12-25T14:41:59.384Z,10.65
2022-12-25T14:44:33.444Z,10.57
2022-12-25T14:47:07.246Z,10.45
2022-12-25T14:49:35.328Z,10.40
2022-12-25T14:52:14.982Z,10.30
2022-12-25T14:54:47.056Z,10.18
2022-12-25T14:57:21.075Z,10.07
2022-12-25T14:59:57.107Z,10.03
2022-12-25T15:02:29.734Z,9.83
2022-12-25T15:04:58.024Z,9.76
2022-12-25T15:07:29.979Z,9.68
2022-12-25T15:10:27.178Z,9.76
2022-12-25T15:12:46.712Z,9.75
2022-12-25T15:15:14.922Z,9.78
2022-12-25T15:17:43.258Z,9.66
2022-12-25T15:20:13.960Z,9.65
2022-12-25T15:25:34.548Z,9.47
2022-12-25T15:28:04.018Z,9.51
2022-12-25T15:30:35.655Z,9.39
2022-12-25T15:33:03.851Z,9.30
2022-12-25T15:35:33.336Z,9.18
2022-12-25T15:38:03.497Z,9.00
2022-12-25T15:40:31.870Z,8.72
2022-12-25T15:43:00.046Z,8.53
2022-12-25T15:45:30.463Z,8.46
2022-12-25T15:47:59.031Z,8.35
2022-12-25T15:50:27.288Z,8.32
2022-12-25T15:52:55.561Z,8.28
2022-12-25T15:55:25.282Z,8.17
2022-12-25T15:57:57.892Z,8.03
2022-12-25T16:00:26.315Z,7.91
2022-12-25T16:02:54.610Z,7.83
2022-12-25T16:05:23.082Z,7.80
2022-12-25T16:07:53.219Z,7.82
2022-12-25T16:10:22.815Z,7.82
2022-12-25T16:12:52.468Z,7.90
2022-12-25T16:15:20.824Z,7.93
2022-12-25T16:17:48.923Z,7.90
2022-12-25T16:20:17.200Z,7.76
2022-12-25T16:22:45.255Z,7.67
2022-12-25T16:25:18.452Z,7.62
2022-12-25T16:28:01.550Z,7.58
2022-12-25T16:30:31.944Z,7.49
2022-12-25T16:33:00.510Z,7.41
2022-12-25T16:35:28.653Z,7.32
2022-12-25T16:37:56.763Z,7.24
2022-12-25T16:40:24.986Z,7.25
2022-12-25T16:42:53.099Z,7.17
2022-12-25T16:45:21.393Z,7.15
2022-12-25T16:47:53.143Z,7.10
2022-12-25T16:50:22.488Z,7.19
2022-12-25T16:52:50.848Z,7.35
2022-12-25T16:55:26.316Z,7.54
2022-12-25T16:57:57.581Z,7.51
2022-12-25T17:00:25.959Z,7.61
2022-12-25T17:02:57.052Z,7.52
2022-12-25T17:05:27.545Z,7.38
2022-12-25T17:07:55.667Z,7.25
2022-12-25T17:10:23.875Z,7.04
2022-12-25T17:12:52.021Z,7.01
2022-12-25T17:15:20.331Z,6.99
2022-12-25T17:17:48.461Z,7.05
2022-12-25T17:20:18.282Z,6.99
2022-12-25T17:22:50.053Z,7.10
2022-12-25T17:25:18.381Z,7.22
2022-12-25T17:27:50.388Z,7.19
2022-12-25T17:30:18.736Z,7.54
2022-12-25T17:32:47.509Z,7.61
2022-12-25T17:35:17.936Z,7.45
2022-12-25T17:37:46.190Z,7.14
2022-12-25T17:40:15.574Z,7.01
2022-12-25T17:42:44.667Z,6.93
2022-12-25T17:45:13.521Z,6.86
2022-12-25T17:47:41.846Z,6.86
2022-12-25T17:50:10.528Z,6.87
2022-12-25T17:52:42.570Z,6.83
2022-12-25T17:55:11.249Z,6.83
2022-12-25T17:57:41.238Z,6.80
2022-12-25T18:00:10.587Z,6.86
2022-12-25T18:02:40.237Z,6.84
2022-12-25T18:05:09.774Z,6.86
2022-12-25T18:07:39.409Z,6.75
2022-12-25T18:10:09.213Z,7.03
2022-12-25T18:12:37.494Z,6.99
2022-12-25T18:15:09.068Z,6.93
2022-12-25T18:17:39.391Z,7.01
2022-12-25T18:20:09.248Z,7.11
2022-12-25T18:22:37.437Z,7.07
2022-12-25T18:25:09.418Z,7.10
2022-12-25T18:27:37.799Z,7.14
2022-12-25T18:30:07.442Z,7.28
2022-12-25T18:32:36.207Z,7.28
2022-12-25T18:35:05.107Z,7.44
2022-12-25T18:37:39.732Z,7.66
2022-12-25T18:40:11.532Z,7.83
2022-12-25T18:42:40.874Z,7.86
2022-12-25T18:45:11.747Z,7.96
2022-12-25T18:47:40.344Z,7.90
2022-12-25T18:50:10.773Z,7.93
2022-12-25T18:52:47.894Z,7.83
2022-12-25T18:55:20.917Z,7.86
2022-12-25T18:57:49.678Z,7.93
2022-12-25T19:00:18.520Z,7.86
2022-12-25T19:02:46.953Z,7.83
2022-12-25T19:05:15.479Z,7.82
2022-12-25T19:07:43.954Z,7.80
2022-12-25T19:10:12.434Z,7.91
2022-12-25T19:12:43.015Z,8.01
2022-12-25T19:15:11.878Z,8.01
2022-12-25T19:17:40.145Z,8.07
2022-12-25T19:20:09.696Z,8.05
2022-12-25T19:22:38.174Z,8.05
2022-12-25T19:25:07.388Z,8.20
2022-12-25T19:27:35.870Z,8.21
2022-12-25T19:30:06.536Z,8.27
2022-12-25T19:32:36.772Z,8.23
2022-12-25T19:35:06.375Z,8.32
2022-12-25T19:37:38.128Z,8.41
2022-12-25T19:40:07.313Z,8.30
2022-12-25T19:42:35.770Z,8.24
2022-12-25T19:45:06.458Z,8.15
2022-12-25T19:47:34.679Z,8.13
2022-12-25T19:50:03.865Z,8.10
2022-12-25T19:52:32.310Z,8.05
2022-12-25T19:55:00.647Z,8.03
2022-12-25T19:57:28.894Z,7.87
2022-12-25T19:59:57.052Z,7.75
2022-12-25T20:02:26.668Z,7.70
2022-12-25T20:04:54.819Z,7.75
2022-12-25T20:07:22.955Z,7.76
2022-12-25T20:09:51.021Z,7.84
2022-12-25T20:12:19.192Z,7.89
2022-12-25T20:14:47.540Z,8.03
2022-12-25T20:17:16.381Z,8.03
2022-12-25T20:19:46.583Z,8.07
2022-12-25T20:22:14.901Z,8.04
2022-12-25T20:24:43.269Z,8.05
2022-12-25T20:27:11.447Z,8.11
2022-12-25T20:29:39.863Z,8.11
2022-12-25T20:32:08.122Z,8.14
2022-12-25T20:34:36.661Z,8.15
2022-12-25T20:37:06.497Z,8.24
2022-12-25T20:39:34.887Z,8.30
2022-12-25T20:42:04.242Z,8.48
2022-12-25T20:44:32.770Z,8.55
2022-12-25T20:47:01.338Z,8.49
2022-12-25T20:49:32.512Z,8.44
2022-12-25T20:52:06.513Z,8.37
2022-12-25T20:54:35.330Z,8.37
2022-12-25T20:57:03.427Z,8.35
2022-12-25T20:59:37.235Z,8.31
2022-12-25T21:02:06.701Z,8.35
2022-12-25T21:04:34.919Z,8.35
2022-12-25T21:07:03.088Z,8.38
2022-12-25T21:09:33.087Z,8.38
2022-12-25T21:12:01.459Z,8.46
2022-12-25T21:14:37.120Z,8.42
2022-12-25T21:17:05.426Z,8.40
2022-12-25T21:19:33.572Z,8.35
2022-12-25T21:22:04.282Z,8.34
2022-12-25T21:24:33.969Z,8.34
2022-12-25T21:27:02.108Z,8.38
2022-12-25T21:29:30.381Z,8.38
2022-12-25T21:32:16.323Z,8.42
2022-12-25T21:34:44.444Z,8.46
2022-12-25T21:37:12.537Z,8.49
2022-12-25T21:39:42.205Z,8.44
2022-12-25T21:42:12.076Z,8.35
2022-12-25T21:44:40.482Z,8.31
2022-12-25T21:47:08.563Z,8.30
2022-12-25T21:49:54.545Z,8.25
2022-12-25T21:52:22.663Z,8.30
2022-12-25T21:54:54.349Z,8.31
2022-12-25T21:57:22.477Z,8.31
2022-12-25T21:59:50.616Z,8.37
2022-12-25T22:02:19.169Z,8.35
2022-12-25T22:04:47.917Z,8.38
2022-12-25T22:07:18.239Z,8.38
2022-12-25T22:09:50.651Z,8.44
2022-12-25T22:12:39.560Z,8.49
2022-12-25T22:15:10.017Z,8.46
2022-12-25T22:17:57.019Z,8.58
2022-12-25T22:20:27.128Z,8.65
2022-12-25T22:22:55.673Z,8.68
2022-12-25T22:25:26.096Z,8.55
2022-12-25T22:27:56.266Z,8.48
2022-12-25T22:30:26.994Z,8.41
2022-12-25T22:32:55.828Z,8.32
2022-12-25T22:35:25.071Z,8.15
2022-12-25T22:37:54.201Z,8.00
2022-12-25T22:40:22.855Z,7.94
2022-12-25T22:42:54.063Z,7.84
2022-12-25T22:45:23.793Z,7.89
2022-12-25T22:47:51.985Z,8.01
2022-12-25T22:50:20.164Z,8.07
2022-12-25T22:52:48.429Z,8.05
2022-12-25T22:55:19.097Z,8.13
2022-12-25T22:57:49.086Z,8.17
2022-12-25T23:00:17.649Z,8.17
2022-12-25T23:02:47.411Z,8.10
2022-12-25T23:05:15.876Z,8.07
2022-12-25T23:07:44.072Z,8.00
2022-12-25T23:10:12.363Z,7.98
2022-12-25T23:13:03.812Z,8.04
2022-12-25T23:15:32.619Z,8.01
2022-12-25T23:18:19.603Z,8.05
2022-12-25T23:21:05.333Z,8.03
2022-12-25T23:23:51.429Z,8.03
2022-12-25T23:26:21.559Z,8.01
2022-12-25T23:29:06.841Z,7.93
2022-12-25T23:31:37.987Z,7.96
2022-12-25T23:34:08.018Z,7.93
2022-12-25T23:36:36.573Z,7.93
2022-12-25T23:39:09.741Z,7.86
2022-12-25T23:41:38.719Z,7.67
2022-12-25T23:44:06.972Z,7.56
2022-12-25T23:46:35.997Z,7.48
2022-12-25T23:49:04.242Z,7.32
2022-12-25T23:51:33.838Z,7.15
2022-12-25T23:54:02.108Z,7.12
2022-12-25T23:56:32.152Z,7.08
2022-12-25T23:59:00.321Z,7.03
